sensor_id;sensor_type;location;lat;lon;timestamp;P1;durP1;ratioP1;P2;durP2;ratioP2
19903;SDS011;10114;50.970;4.962;2022-12-07T00:00:29;19.95;;;10.95;;
19903;SDS011;10114;50.970;4.962;2022-12-07T00:02:55;23.50;;;10.15;;
19903;SDS011;10114;50.970;4.962;2022-12-07T00:05:21;20.88;;;10.50;;
19903;SDS011;10114;50.970;4.962;2022-12-07T00:07:47;20.45;;;9.52;;
19903;SDS011;10114;50.970;4.962;2022-12-07T00:10:13;23.00;;;9.88;;
19903;SDS011;10114;50.970;4.962;2022-12-07T00:12:39;21.67;;;10.32;;
19903;SDS011;10114;50.970;4.962;2022-12-07T00:15:05;22.83;;;10.05;;
19903;SDS011;10114;50.970;4.962;2022-12-07T00:17:31;25.13;;;9.88;;
19903;SDS011;10114;50.970;4.962;2022-12-07T00:19:58;18.23;;;9.77;;
19903;SDS011;10114;50.970;4.962;2022-12-07T00:22:24;19.02;;;10.50;;
19903;SDS011;10114;50.970;4.962;2022-12-07T00:24:50;17.83;;;9.82;;
19903;SDS011;10114;50.970;4.962;2022-12-07T00:27:16;23.67;;;10.48;;
19903;SDS011;10114;50.970;4.962;2022-12-07T00:29:42;18.95;;;10.15;;
19903;SDS011;10114;50.970;4.962;2022-12-07T00:32:08;17.75;;;9.60;;
19903;SDS011;10114;50.970;4.962;2022-12-07T00:34:34;18.83;;;10.10;;
19903;SDS011;10114;50.970;4.962;2022-12-07T00:37:00;19.13;;;9.95;;
19903;SDS011;10114;50.970;4.962;2022-12-07T00:39:26;17.02;;;10.05;;
19903;SDS011;10114;50.970;4.962;2022-12-07T00:41:52;19.40;;;9.60;;
19903;SDS011;10114;50.970;4.962;2022-12-07T00:44:18;21.77;;;10.98;;
19903;SDS011;10114;50.970;4.962;2022-12-07T00:46:44;22.40;;;10.80;;
19903;SDS011;10114;50.970;4.962;2022-12-07T00:49:11;22.95;;;11.63;;
19903;SDS011;10114;50.970;4.962;2022-12-07T00:51:37;21.25;;;11.65;;
19903;SDS011;10114;50.970;4.962;2022-12-07T00:54:03;20.30;;;10.93;;
19903;SDS011;10114;50.970;4.962;2022-12-07T00:56:29;21.52;;;11.10;;
19903;SDS011;10114;50.970;4.962;2022-12-07T00:58:56;19.13;;;10.57;;
19903;SDS011;10114;50.970;4.962;2022-12-07T01:01:23;23.38;;;11.50;;
19903;SDS011;10114;50.970;4.962;2022-12-07T01:03:49;21.08;;;11.52;;
19903;SDS011;10114;50.970;4.962;2022-12-07T01:06:16;20.48;;;11.10;;
19903;SDS011;10114;50.970;4.962;2022-12-07T01:08:42;28.33;;;11.43;;
19903;SDS011;10114;50.970;4.962;2022-12-07T01:11:09;21.02;;;11.63;;
19903;SDS011;10114;50.970;4.962;2022-12-07T01:13:37;23.58;;;11.70;;
19903;SDS011;10114;50.970;4.962;2022-12-07T01:16:04;23.15;;;10.82;;
19903;SDS011;10114;50.970;4.962;2022-12-07T01:18:30;21.17;;;12.20;;
19903;SDS011;10114;50.970;4.962;2022-12-07T01:20:58;22.05;;;11.20;;
19903;SDS011;10114;50.970;4.962;2022-12-07T01:23:24;20.13;;;11.45;;
19903;SDS011;10114;50.970;4.962;2022-12-07T01:26:00;23.55;;;12.15;;
19903;SDS011;10114;50.970;4.962;2022-12-07T01:28:27;19.42;;;10.32;;
19903;SDS011;10114;50.970;4.962;2022-12-07T01:33:22;18.70;;;10.00;;
19903;SDS011;10114;50.970;4.962;2022-12-07T01:35:48;26.63;;;13.57;;
19903;SDS011;10114;50.970;4.962;2022-12-07T01:38:14;25.67;;;13.15;;
19903;SDS011;10114;50.970;4.962;2022-12-07T01:40:40;25.15;;;12.55;;
19903;SDS011;10114;50.970;4.962;2022-12-07T01:43:16;25.25;;;13.27;;
19903;SDS011;10114;50.970;4.962;2022-12-07T01:45:43;28.63;;;14.55;;
19903;SDS011;10114;50.970;4.962;2022-12-07T01:48:09;26.13;;;14.38;;
19903;SDS011;10114;50.970;4.962;2022-12-07T01:50:37;25.48;;;14.52;;
19903;SDS011;10114;50.970;4.962;2022-12-07T01:53:04;26.48;;;15.02;;
19903;SDS011;10114;50.970;4.962;2022-12-07T01:55:32;25.45;;;15.10;;
19903;SDS011;10114;50.970;4.962;2022-12-07T01:57:58;29.77;;;14.35;;
19903;SDS011;10114;50.970;4.962;2022-12-07T02:00:24;22.30;;;12.88;;
19903;SDS011;10114;50.970;4.962;2022-12-07T02:05:19;28.33;;;15.02;;
19903;SDS011;10114;50.970;4.962;2022-12-07T02:07:46;32.40;;;15.48;;
19903;SDS011;10114;50.970;4.962;2022-12-07T02:10:20;25.63;;;14.70;;
19903;SDS011;10114;50.970;4.962;2022-12-07T02:12:49;24.17;;;13.25;;
19903;SDS011;10114;50.970;4.962;2022-12-07T02:15:16;29.95;;;16.13;;
19903;SDS011;10114;50.970;4.962;2022-12-07T02:18:45;28.92;;;16.02;;
19903;SDS011;10114;50.970;4.962;2022-12-07T02:20:48;30.40;;;15.68;;
19903;SDS011;10114;50.970;4.962;2022-12-07T02:23:29;32.55;;;18.08;;
19903;SDS011;10114;50.970;4.962;2022-12-07T02:28:31;29.75;;;15.57;;
19903;SDS011;10114;50.970;4.962;2022-12-07T02:31:01;33.60;;;17.42;;
19903;SDS011;10114;50.970;4.962;2022-12-07T02:33:31;31.98;;;18.00;;
19903;SDS011;10114;50.970;4.962;2022-12-07T02:36:04;38.85;;;18.05;;
19903;SDS011;10114;50.970;4.962;2022-12-07T02:38:35;26.58;;;15.65;;
19903;SDS011;10114;50.970;4.962;2022-12-07T02:41:08;33.47;;;17.17;;
19903;SDS011;10114;50.970;4.962;2022-12-07T02:43:38;30.88;;;16.25;;
19903;SDS011;10114;50.970;4.962;2022-12-07T02:46:09;34.72;;;18.13;;
19903;SDS011;10114;50.970;4.962;2022-12-07T02:48:36;30.33;;;16.08;;
19903;SDS011;10114;50.970;4.962;2022-12-07T02:51:04;30.35;;;16.02;;
19903;SDS011;10114;50.970;4.962;2022-12-07T02:53:37;30.08;;;16.30;;
19903;SDS011;10114;50.970;4.962;2022-12-07T03:04:12;29.48;;;16.67;;
19903;SDS011;10114;50.970;4.962;2022-12-07T03:06:43;29.80;;;16.30;;
19903;SDS011;10114;50.970;4.962;2022-12-07T03:09:14;34.78;;;17.77;;
19903;SDS011;10114;50.970;4.962;2022-12-07T03:11:50;30.63;;;16.83;;
19903;SDS011;10114;50.970;4.962;2022-12-07T03:14:26;32.20;;;16.90;;
19903;SDS011;10114;50.970;4.962;2022-12-07T03:17:03;35.30;;;18.15;;
19903;SDS011;10114;50.970;4.962;2022-12-07T03:19:31;31.23;;;16.92;;
19903;SDS011;10114;50.970;4.962;2022-12-07T03:22:02;29.75;;;16.67;;
19903;SDS011;10114;50.970;4.962;2022-12-07T03:24:31;25.90;;;16.23;;
19903;SDS011;10114;50.970;4.962;2022-12-07T03:27:01;31.63;;;16.17;;
19903;SDS011;10114;50.970;4.962;2022-12-07T03:29:29;31.17;;;15.90;;
19903;SDS011;10114;50.970;4.962;2022-12-07T03:32:01;28.25;;;15.73;;
19903;SDS011;10114;50.970;4.962;2022-12-07T03:34:32;35.65;;;16.83;;
19903;SDS011;10114;50.970;4.962;2022-12-07T03:37:08;32.33;;;16.05;;
19903;SDS011;10114;50.970;4.962;2022-12-07T03:39:57;28.23;;;16.17;;
19903;SDS011;10114;50.970;4.962;2022-12-07T03:42:24;25.17;;;15.30;;
19903;SDS011;10114;50.970;4.962;2022-12-07T03:44:50;27.42;;;14.65;;
19903;SDS011;10114;50.970;4.962;2022-12-07T03:49:50;30.23;;;16.13;;
19903;SDS011;10114;50.970;4.962;2022-12-07T03:54:52;29.70;;;15.45;;
19903;SDS011;10114;50.970;4.962;2022-12-07T03:57:21;30.65;;;17.58;;
19903;SDS011;10114;50.970;4.962;2022-12-07T03:59:48;26.23;;;13.60;;
19903;SDS011;10114;50.970;4.962;2022-12-07T04:02:15;27.30;;;13.60;;
19903;SDS011;10114;50.970;4.962;2022-12-07T04:04:41;25.95;;;14.95;;
19903;SDS011;10114;50.970;4.962;2022-12-07T04:07:08;27.98;;;14.70;;
19903;SDS011;10114;50.970;4.962;2022-12-07T04:09:35;28.40;;;15.75;;
19903;SDS011;10114;50.970;4.962;2022-12-07T04:12:01;27.17;;;14.77;;
19903;SDS011;10114;50.970;4.962;2022-12-07T04:14:27;27.88;;;15.25;;
19903;SDS011;10114;50.970;4.962;2022-12-07T04:16:57;26.58;;;14.52;;
19903;SDS011;10114;50.970;4.962;2022-12-07T04:19:27;26.25;;;13.05;;
19903;SDS011;10114;50.970;4.962;2022-12-07T04:21:54;27.38;;;14.07;;
19903;SDS011;10114;50.970;4.962;2022-12-07T04:24:20;27.17;;;13.90;;
19903;SDS011;10114;50.970;4.962;2022-12-07T04:26:47;21.40;;;13.43;;
19903;SDS011;10114;50.970;4.962;2022-12-07T04:29:13;32.60;;;15.73;;
19903;SDS011;10114;50.970;4.962;2022-12-07T04:31:39;31.80;;;15.02;;
19903;SDS011;10114;50.970;4.962;2022-12-07T04:34:06;28.35;;;14.82;;
19903;SDS011;10114;50.970;4.962;2022-12-07T04:36:32;26.13;;;13.90;;
19903;SDS011;10114;50.970;4.962;2022-12-07T04:38:58;31.88;;;14.32;;
19903;SDS011;10114;50.970;4.962;2022-12-07T04:41:25;23.38;;;13.57;;
19903;SDS011;10114;50.970;4.962;2022-12-07T04:46:20;22.70;;;13.15;;
19903;SDS011;10114;50.970;4.962;2022-12-07T04:48:46;25.05;;;13.63;;
19903;SDS011;10114;50.970;4.962;2022-12-07T04:51:12;22.65;;;12.85;;
19903;SDS011;10114;50.970;4.962;2022-12-07T04:53:39;26.02;;;12.63;;
19903;SDS011;10114;50.970;4.962;2022-12-07T04:56:05;23.95;;;12.57;;
19903;SDS011;10114;50.970;4.962;2022-12-07T04:58:31;29.80;;;15.50;;
19903;SDS011;10114;50.970;4.962;2022-12-07T05:00:57;32.50;;;16.63;;
19903;SDS011;10114;50.970;4.962;2022-12-07T05:03:23;31.88;;;15.43;;
19903;SDS011;10114;50.970;4.962;2022-12-07T05:05:49;32.53;;;17.85;;
19903;SDS011;10114;50.970;4.962;2022-12-07T05:08:15;28.10;;;14.65;;
19903;SDS011;10114;50.970;4.962;2022-12-07T05:10:41;24.77;;;14.32;;
19903;SDS011;10114;50.970;4.962;2022-12-07T05:13:07;27.75;;;13.57;;
19903;SDS011;10114;50.970;4.962;2022-12-07T05:15:33;24.10;;;12.82;;
19903;SDS011;10114;50.970;4.962;2022-12-07T05:17:59;25.05;;;13.18;;
19903;SDS011;10114;50.970;4.962;2022-12-07T05:20:25;31.58;;;14.55;;
19903;SDS011;10114;50.970;4.962;2022-12-07T05:22:51;38.22;;;16.45;;
19903;SDS011;10114;50.970;4.962;2022-12-07T05:25:17;29.92;;;15.32;;
19903;SDS011;10114;50.970;4.962;2022-12-07T05:27:43;31.98;;;16.20;;
19903;SDS011;10114;50.970;4.962;2022-12-07T05:30:09;30.98;;;15.95;;
19903;SDS011;10114;50.970;4.962;2022-12-07T05:32:35;26.75;;;14.55;;
19903;SDS011;10114;50.970;4.962;2022-12-07T05:35:01;29.40;;;15.07;;
19903;SDS011;10114;50.970;4.962;2022-12-07T05:37:27;27.25;;;16.17;;
19903;SDS011;10114;50.970;4.962;2022-12-07T05:39:53;31.75;;;16.63;;
19903;SDS011;10114;50.970;4.962;2022-12-07T05:42:19;35.67;;;17.08;;
19903;SDS011;10114;50.970;4.962;2022-12-07T05:44:47;34.03;;;15.73;;
19903;SDS011;10114;50.970;4.962;2022-12-07T05:47:13;28.92;;;15.95;;
19903;SDS011;10114;50.970;4.962;2022-12-07T05:49:40;30.25;;;16.52;;
19903;SDS011;10114;50.970;4.962;2022-12-07T05:52:06;33.90;;;15.00;;
19903;SDS011;10114;50.970;4.962;2022-12-07T05:54:32;28.40;;;16.33;;
19903;SDS011;10114;50.970;4.962;2022-12-07T05:56:58;33.53;;;15.18;;
19903;SDS011;10114;50.970;4.962;2022-12-07T05:59:24;28.42;;;15.68;;
19903;SDS011;10114;50.970;4.962;2022-12-07T06:04:18;30.05;;;17.55;;
19903;SDS011;10114;50.970;4.962;2022-12-07T06:06:45;29.10;;;14.77;;
19903;SDS011;10114;50.970;4.962;2022-12-07T06:09:11;26.25;;;14.95;;
19903;SDS011;10114;50.970;4.962;2022-12-07T06:11:37;22.92;;;13.27;;
19903;SDS011;10114;50.970;4.962;2022-12-07T06:14:22;23.58;;;14.00;;
19903;SDS011;10114;50.970;4.962;2022-12-07T06:16:48;25.77;;;12.75;;
19903;SDS011;10114;50.970;4.962;2022-12-07T06:19:14;25.63;;;13.30;;
19903;SDS011;10114;50.970;4.962;2022-12-07T06:21:40;25.33;;;13.85;;
19903;SDS011;10114;50.970;4.962;2022-12-07T06:24:07;31.23;;;13.57;;
19903;SDS011;10114;50.970;4.962;2022-12-07T06:26:33;29.08;;;13.45;;
19903;SDS011;10114;50.970;4.962;2022-12-07T06:28:59;26.13;;;14.73;;
19903;SDS011;10114;50.970;4.962;2022-12-07T06:31:25;30.77;;;14.25;;
19903;SDS011;10114;50.970;4.962;2022-12-07T06:33:51;26.67;;;13.82;;
19903;SDS011;10114;50.970;4.962;2022-12-07T06:36:22;30.63;;;15.15;;
19903;SDS011;10114;50.970;4.962;2022-12-07T06:38:48;28.95;;;14.18;;
19903;SDS011;10114;50.970;4.962;2022-12-07T06:41:14;30.65;;;13.60;;
19903;SDS011;10114;50.970;4.962;2022-12-07T06:43:40;25.85;;;13.40;;
19903;SDS011;10114;50.970;4.962;2022-12-07T06:46:07;26.30;;;12.75;;
19903;SDS011;10114;50.970;4.962;2022-12-07T06:48:33;30.77;;;15.18;;
19903;SDS011;10114;50.970;4.962;2022-12-07T06:50:59;32.50;;;15.93;;
19903;SDS011;10114;50.970;4.962;2022-12-07T06:53:25;27.05;;;14.50;;
19903;SDS011;10114;50.970;4.962;2022-12-07T06:55:51;27.20;;;13.88;;
19903;SDS011;10114;50.970;4.962;2022-12-07T06:58:17;31.50;;;13.98;;
19903;SDS011;10114;50.970;4.962;2022-12-07T07:00:44;27.67;;;14.38;;
19903;SDS011;10114;50.970;4.962;2022-12-07T07:03:10;27.73;;;12.93;;
19903;SDS011;10114;50.970;4.962;2022-12-07T07:05:36;28.70;;;13.63;;
19903;SDS011;10114;50.970;4.962;2022-12-07T07:08:02;32.10;;;13.10;;
19903;SDS011;10114;50.970;4.962;2022-12-07T07:10:28;27.30;;;13.68;;
19903;SDS011;10114;50.970;4.962;2022-12-07T07:12:55;28.10;;;13.23;;
19903;SDS011;10114;50.970;4.962;2022-12-07T07:15:21;26.48;;;14.07;;
19903;SDS011;10114;50.970;4.962;2022-12-07T07:17:47;30.35;;;13.63;;
19903;SDS011;10114;50.970;4.962;2022-12-07T07:20:13;31.27;;;13.90;;
19903;SDS011;10114;50.970;4.962;2022-12-07T07:22:39;32.70;;;15.02;;
19903;SDS011;10114;50.970;4.962;2022-12-07T07:25:05;29.48;;;14.65;;
19903;SDS011;10114;50.970;4.962;2022-12-07T07:27:31;32.90;;;14.38;;
19903;SDS011;10114;50.970;4.962;2022-12-07T07:29:57;27.88;;;14.73;;
19903;SDS011;10114;50.970;4.962;2022-12-07T07:32:23;28.90;;;14.10;;
19903;SDS011;10114;50.970;4.962;2022-12-07T07:34:49;22.63;;;12.75;;
19903;SDS011;10114;50.970;4.962;2022-12-07T07:37:15;26.83;;;12.57;;
19903;SDS011;10114;50.970;4.962;2022-12-07T07:39:41;22.10;;;11.68;;
19903;SDS011;10114;50.970;4.962;2022-12-07T07:42:07;31.48;;;13.30;;
19903;SDS011;10114;50.970;4.962;2022-12-07T07:44:33;23.80;;;12.15;;
19903;SDS011;10114;50.970;4.962;2022-12-07T07:47:00;25.77;;;12.65;;
19903;SDS011;10114;50.970;4.962;2022-12-07T07:49:26;24.83;;;12.73;;
19903;SDS011;10114;50.970;4.962;2022-12-07T07:51:52;25.20;;;11.27;;
19903;SDS011;10114;50.970;4.962;2022-12-07T07:54:18;23.88;;;11.25;;
19903;SDS011;10114;50.970;4.962;2022-12-07T07:56:44;26.25;;;13.25;;
19903;SDS011;10114;50.970;4.962;2022-12-07T07:59:10;26.45;;;11.75;;
19903;SDS011;10114;50.970;4.962;2022-12-07T08:01:36;27.90;;;15.10;;
19903;SDS011;10114;50.970;4.962;2022-12-07T08:04:02;35.25;;;16.85;;
19903;SDS011;10114;50.970;4.962;2022-12-07T08:06:28;38.50;;;18.80;;
19903;SDS011;10114;50.970;4.962;2022-12-07T08:08:54;35.00;;;18.90;;
19903;SDS011;10114;50.970;4.962;2022-12-07T08:11:22;34.30;;;17.73;;
19903;SDS011;10114;50.970;4.962;2022-12-07T08:13:48;33.20;;;18.40;;
19903;SDS011;10114;50.970;4.962;2022-12-07T08:16:15;97.32;;;40.60;;
19903;SDS011;10114;50.970;4.962;2022-12-07T08:18:41;67.38;;;30.95;;
19903;SDS011;10114;50.970;4.962;2022-12-07T08:21:09;103.90;;;42.58;;
19903;SDS011;10114;50.970;4.962;2022-12-07T08:23:36;46.42;;;23.05;;
19903;SDS011;10114;50.970;4.962;2022-12-07T08:26:03;37.53;;;20.90;;
19903;SDS011;10114;50.970;4.962;2022-12-07T08:28:30;45.13;;;22.80;;
19903;SDS011;10114;50.970;4.962;2022-12-07T08:30:59;40.53;;;20.33;;
19903;SDS011;10114;50.970;4.962;2022-12-07T08:33:26;29.48;;;15.32;;
19903;SDS011;10114;50.970;4.962;2022-12-07T08:35:52;32.85;;;18.88;;
19903;SDS011;10114;50.970;4.962;2022-12-07T08:38:18;29.88;;;15.57;;
19903;SDS011;10114;50.970;4.962;2022-12-07T08:40:44;30.58;;;14.93;;
19903;SDS011;10114;50.970;4.962;2022-12-07T08:43:10;23.67;;;11.85;;
19903;SDS011;10114;50.970;4.962;2022-12-07T08:45:36;23.67;;;10.25;;
19903;SDS011;10114;50.970;4.962;2022-12-07T08:48:06;18.42;;;9.32;;
19903;SDS011;10114;50.970;4.962;2022-12-07T08:50:34;19.23;;;8.95;;
19903;SDS011;10114;50.970;4.962;2022-12-07T08:53:01;19.88;;;9.38;;
19903;SDS011;10114;50.970;4.962;2022-12-07T08:55:28;16.98;;;9.32;;
19903;SDS011;10114;50.970;4.962;2022-12-07T08:57:54;18.67;;;8.27;;
19903;SDS011;10114;50.970;4.962;2022-12-07T09:00:21;19.77;;;7.93;;
19903;SDS011;10114;50.970;4.962;2022-12-07T09:02:47;19.27;;;9.23;;
19903;SDS011;10114;50.970;4.962;2022-12-07T09:05:13;19.75;;;9.40;;
19903;SDS011;10114;50.970;4.962;2022-12-07T09:07:42;20.23;;;9.25;;
19903;SDS011;10114;50.970;4.962;2022-12-07T09:10:09;18.38;;;9.40;;
19903;SDS011;10114;50.970;4.962;2022-12-07T09:12:35;21.88;;;8.90;;
19903;SDS011;10114;50.970;4.962;2022-12-07T09:15:01;22.33;;;8.77;;
19903;SDS011;10114;50.970;4.962;2022-12-07T09:17:27;22.23;;;9.10;;
19903;SDS011;10114;50.970;4.962;2022-12-07T09:19:54;15.80;;;8.00;;
19903;SDS011;10114;50.970;4.962;2022-12-07T09:22:21;20.90;;;9.05;;
19903;SDS011;10114;50.970;4.962;2022-12-07T09:24:47;15.02;;;7.97;;
19903;SDS011;10114;50.970;4.962;2022-12-07T09:27:13;21.17;;;8.65;;
19903;SDS011;10114;50.970;4.962;2022-12-07T09:29:40;23.05;;;7.65;;
19903;SDS011;10114;50.970;4.962;2022-12-07T09:32:06;20.30;;;8.27;;
19903;SDS011;10114;50.970;4.962;2022-12-07T09:34:33;18.90;;;8.80;;
19903;SDS011;10114;50.970;4.962;2022-12-07T09:37:00;22.17;;;9.15;;
19903;SDS011;10114;50.970;4.962;2022-12-07T09:39:27;20.48;;;8.57;;
19903;SDS011;10114;50.970;4.962;2022-12-07T09:41:53;19.85;;;8.55;;
19903;SDS011;10114;50.970;4.962;2022-12-07T09:44:24;15.98;;;8.35;;
19903;SDS011;10114;50.970;4.962;2022-12-07T09:46:50;18.52;;;9.00;;
19903;SDS011;10114;50.970;4.962;2022-12-07T09:49:18;18.83;;;9.07;;
19903;SDS011;10114;50.970;4.962;2022-12-07T09:51:45;20.65;;;8.77;;
19903;SDS011;10114;50.970;4.962;2022-12-07T09:54:15;17.50;;;7.75;;
19903;SDS011;10114;50.970;4.962;2022-12-07T09:56:42;15.82;;;7.45;;
19903;SDS011;10114;50.970;4.962;2022-12-07T09:59:12;16.85;;;8.52;;
19903;SDS011;10114;50.970;4.962;2022-12-07T10:01:39;12.77;;;7.00;;
19903;SDS011;10114;50.970;4.962;2022-12-07T10:06:50;15.93;;;7.45;;
19903;SDS011;10114;50.970;4.962;2022-12-07T10:09:17;17.75;;;7.53;;
19903;SDS011;10114;50.970;4.962;2022-12-07T10:12:04;17.25;;;8.27;;
19903;SDS011;10114;50.970;4.962;2022-12-07T10:14:31;15.95;;;7.47;;
19903;SDS011;10114;50.970;4.962;2022-12-07T10:16:57;16.95;;;7.20;;
19903;SDS011;10114;50.970;4.962;2022-12-07T10:19:28;17.38;;;8.23;;
19903;SDS011;10114;50.970;4.962;2022-12-07T10:24:26;12.85;;;6.38;;
19903;SDS011;10114;50.970;4.962;2022-12-07T10:26:52;16.00;;;6.93;;
19903;SDS011;10114;50.970;4.962;2022-12-07T10:29:23;18.23;;;6.97;;
19903;SDS011;10114;50.970;4.962;2022-12-07T10:32:33;14.18;;;6.40;;
19903;SDS011;10114;50.970;4.962;2022-12-07T10:34:39;15.95;;;6.93;;
19903;SDS011;10114;50.970;4.962;2022-12-07T10:42:09;10.88;;;6.35;;
19903;SDS011;10114;50.970;4.962;2022-12-07T10:44:41;15.32;;;6.30;;
19903;SDS011;10114;50.970;4.962;2022-12-07T11:02:35;20.45;;;6.13;;
19903;SDS011;10114;50.970;4.962;2022-12-07T11:07:54;9.90;;;4.28;;
19903;SDS011;10114;50.970;4.962;2022-12-07T11:13:10;14.60;;;5.22;;
19903;SDS011;10114;50.970;4.962;2022-12-07T11:15:53;12.43;;;4.80;;
19903;SDS011;10114;50.970;4.962;2022-12-07T11:18:25;16.38;;;5.55;;
19903;SDS011;10114;50.970;4.962;2022-12-07T11:34:08;11.38;;;4.68;;
19903;SDS011;10114;50.970;4.962;2022-12-07T11:36:37;11.32;;;4.65;;
19903;SDS011;10114;50.970;4.962;2022-12-07T11:39:06;9.63;;;4.10;;
19903;SDS011;10114;50.970;4.962;2022-12-07T11:41:36;12.50;;;4.45;;
19903;SDS011;10114;50.970;4.962;2022-12-07T11:46:54;18.27;;;5.32;;
19903;SDS011;10114;50.970;4.962;2022-12-07T11:52:10;10.23;;;4.10;;
19903;SDS011;10114;50.970;4.962;2022-12-07T11:54:40;10.23;;;3.58;;
19903;SDS011;10114;50.970;4.962;2022-12-07T11:57:09;9.32;;;4.70;;
19903;SDS011;10114;50.970;4.962;2022-12-07T11:59:38;9.27;;;3.22;;
19903;SDS011;10114;50.970;4.962;2022-12-07T12:05:22;11.82;;;3.65;;
19903;SDS011;10114;50.970;4.962;2022-12-07T12:10:29;13.23;;;3.75;;
19903;SDS011;10114;50.970;4.962;2022-12-07T12:13:08;11.18;;;3.33;;
19903;SDS011;10114;50.970;4.962;2022-12-07T12:15:51;13.85;;;3.00;;
19903;SDS011;10114;50.970;4.962;2022-12-07T12:21:02;9.43;;;2.95;;
19903;SDS011;10114;50.970;4.962;2022-12-07T12:23:40;7.05;;;2.83;;
19903;SDS011;10114;50.970;4.962;2022-12-07T12:26:08;7.75;;;2.72;;
19903;SDS011;10114;50.970;4.962;2022-12-07T12:33:54;7.65;;;2.67;;
19903;SDS011;10114;50.970;4.962;2022-12-07T12:36:30;8.70;;;2.65;;
19903;SDS011;10114;50.970;4.962;2022-12-07T12:39:18;6.30;;;2.40;;
19903;SDS011;10114;50.970;4.962;2022-12-07T12:51:47;6.88;;;2.60;;
19903;SDS011;10114;50.970;4.962;2022-12-07T12:54:26;7.15;;;2.45;;
19903;SDS011;10114;50.970;4.962;2022-12-07T12:59:29;7.60;;;2.88;;
19903;SDS011;10114;50.970;4.962;2022-12-07T13:07:47;8.90;;;3.60;;
19903;SDS011;10114;50.970;4.962;2022-12-07T13:10:01;15.15;;;3.88;;
19903;SDS011;10114;50.970;4.962;2022-12-07T13:12:27;17.75;;;4.63;;
19903;SDS011;10114;50.970;4.962;2022-12-07T13:14:55;9.20;;;3.95;;
19903;SDS011;10114;50.970;4.962;2022-12-07T13:19:57;11.50;;;4.22;;
19903;SDS011;10114;50.970;4.962;2022-12-07T13:24:57;10.52;;;4.78;;
19903;SDS011;10114;50.970;4.962;2022-12-07T13:27:26;13.98;;;4.80;;
19903;SDS011;10114;50.970;4.962;2022-12-07T13:29:53;14.20;;;5.07;;
19903;SDS011;10114;50.970;4.962;2022-12-07T13:32:23;14.07;;;5.78;;
19903;SDS011;10114;50.970;4.962;2022-12-07T13:34:49;10.15;;;4.95;;
19903;SDS011;10114;50.970;4.962;2022-12-07T13:40:00;9.93;;;4.57;;
19903;SDS011;10114;50.970;4.962;2022-12-07T13:42:27;11.93;;;4.28;;
19903;SDS011;10114;50.970;4.962;2022-12-07T13:44:54;13.48;;;4.78;;
19903;SDS011;10114;50.970;4.962;2022-12-07T13:50:15;11.02;;;3.80;;
19903;SDS011;10114;50.970;4.962;2022-12-07T13:52:46;6.32;;;2.97;;
19903;SDS011;10114;50.970;4.962;2022-12-07T13:55:14;10.18;;;4.00;;
19903;SDS011;10114;50.970;4.962;2022-12-07T13:57:41;11.98;;;3.85;;
19903;SDS011;10114;50.970;4.962;2022-12-07T14:00:17;11.15;;;3.95;;
19903;SDS011;10114;50.970;4.962;2022-12-07T14:02:54;7.72;;;3.33;;
19903;SDS011;10114;50.970;4.962;2022-12-07T14:05:25;8.93;;;3.58;;
19903;SDS011;10114;50.970;4.962;2022-12-07T14:08:02;12.65;;;3.70;;
19903;SDS011;10114;50.970;4.962;2022-12-07T14:10:32;8.85;;;3.53;;
19903;SDS011;10114;50.970;4.962;2022-12-07T14:12:58;14.75;;;4.13;;
19903;SDS011;10114;50.970;4.962;2022-12-07T14:15:32;8.05;;;3.80;;
19903;SDS011;10114;50.970;4.962;2022-12-07T14:17:58;9.48;;;4.20;;
19903;SDS011;10114;50.970;4.962;2022-12-07T14:20:38;11.60;;;3.53;;
19903;SDS011;10114;50.970;4.962;2022-12-07T14:23:05;13.70;;;4.00;;
19903;SDS011;10114;50.970;4.962;2022-12-07T14:25:45;10.35;;;4.07;;
19903;SDS011;10114;50.970;4.962;2022-12-07T14:28:25;9.23;;;4.15;;
19903;SDS011;10114;50.970;4.962;2022-12-07T14:30:52;8.70;;;4.15;;
19903;SDS011;10114;50.970;4.962;2022-12-07T14:33:18;11.70;;;4.10;;
19903;SDS011;10114;50.970;4.962;2022-12-07T14:35:44;8.20;;;4.18;;
19903;SDS011;10114;50.970;4.962;2022-12-07T14:38:10;7.40;;;3.75;;
19903;SDS011;10114;50.970;4.962;2022-12-07T14:40:36;17.10;;;4.47;;
19903;SDS011;10114;50.970;4.962;2022-12-07T14:45:29;8.27;;;4.05;;
19903;SDS011;10114;50.970;4.962;2022-12-07T14:47:56;12.20;;;4.25;;
19903;SDS011;10114;50.970;4.962;2022-12-07T14:50:22;10.60;;;4.90;;
19903;SDS011;10114;50.970;4.962;2022-12-07T14:52:52;2.67;;;1.63;;
19903;SDS011;10114;50.970;4.962;2022-12-07T14:55:24;6.70;;;2.08;;
19903;SDS011;10114;50.970;4.962;2022-12-07T14:57:51;6.50;;;2.65;;
19903;SDS011;10114;50.970;4.962;2022-12-07T15:00:17;7.32;;;2.97;;
19903;SDS011;10114;50.970;4.962;2022-12-07T15:02:45;4.13;;;2.10;;
19903;SDS011;10114;50.970;4.962;2022-12-07T15:05:11;4.50;;;2.28;;
19903;SDS011;10114;50.970;4.962;2022-12-07T15:07:38;6.55;;;2.28;;
19903;SDS011;10114;50.970;4.962;2022-12-07T15:10:04;6.95;;;2.60;;
19903;SDS011;10114;50.970;4.962;2022-12-07T15:12:31;6.07;;;2.25;;
19903;SDS011;10114;50.970;4.962;2022-12-07T15:14:57;7.35;;;2.85;;
19903;SDS011;10114;50.970;4.962;2022-12-07T15:17:23;6.30;;;2.70;;
19903;SDS011;10114;50.970;4.962;2022-12-07T15:19:49;7.30;;;2.88;;
19903;SDS011;10114;50.970;4.962;2022-12-07T15:22:15;5.38;;;2.38;;
19903;SDS011;10114;50.970;4.962;2022-12-07T15:24:41;6.28;;;3.00;;
19903;SDS011;10114;50.970;4.962;2022-12-07T15:27:07;4.65;;;2.30;;
19903;SDS011;10114;50.970;4.962;2022-12-07T15:29:33;5.10;;;2.78;;
19903;SDS011;10114;50.970;4.962;2022-12-07T15:31:59;7.35;;;3.88;;
19903;SDS011;10114;50.970;4.962;2022-12-07T15:34:26;10.27;;;3.83;;
19903;SDS011;10114;50.970;4.962;2022-12-07T15:36:53;12.32;;;4.78;;
19903;SDS011;10114;50.970;4.962;2022-12-07T15:39:19;6.60;;;3.75;;
19903;SDS011;10114;50.970;4.962;2022-12-07T15:41:46;8.48;;;4.10;;
19903;SDS011;10114;50.970;4.962;2022-12-07T15:44:13;9.65;;;3.85;;
19903;SDS011;10114;50.970;4.962;2022-12-07T15:46:58;7.68;;;3.42;;
19903;SDS011;10114;50.970;4.962;2022-12-07T15:49:24;8.43;;;3.42;;
19903;SDS011;10114;50.970;4.962;2022-12-07T15:51:51;6.90;;;3.25;;
19903;SDS011;10114;50.970;4.962;2022-12-07T15:54:21;8.85;;;3.35;;
19903;SDS011;10114;50.970;4.962;2022-12-07T15:56:47;7.47;;;4.15;;
19903;SDS011;10114;50.970;4.962;2022-12-07T15:59:13;9.70;;;4.00;;
19903;SDS011;10114;50.970;4.962;2022-12-07T16:01:39;10.23;;;4.28;;
19903;SDS011;10114;50.970;4.962;2022-12-07T16:04:05;11.75;;;4.75;;
19903;SDS011;10114;50.970;4.962;2022-12-07T16:06:31;9.23;;;4.65;;
19903;SDS011;10114;50.970;4.962;2022-12-07T16:08:57;8.70;;;3.90;;
19903;SDS011;10114;50.970;4.962;2022-12-07T16:11:23;9.45;;;4.50;;
19903;SDS011;10114;50.970;4.962;2022-12-07T16:13:49;10.32;;;4.10;;
19903;SDS011;10114;50.970;4.962;2022-12-07T16:16:16;7.82;;;4.05;;
19903;SDS011;10114;50.970;4.962;2022-12-07T16:18:43;11.25;;;4.53;;
19903;SDS011;10114;50.970;4.962;2022-12-07T16:21:10;8.80;;;4.00;;
19903;SDS011;10114;50.970;4.962;2022-12-07T16:23:36;10.50;;;4.30;;
19903;SDS011;10114;50.970;4.962;2022-12-07T16:26:10;10.18;;;5.80;;
19903;SDS011;10114;50.970;4.962;2022-12-07T16:28:36;13.02;;;5.15;;
19903;SDS011;10114;50.970;4.962;2022-12-07T16:31:06;12.52;;;5.50;;
19903;SDS011;10114;50.970;4.962;2022-12-07T16:33:36;11.10;;;4.97;;